Time;durP1;ratioP1;P1;durP2;ratioP2;P2;SDS_P1;SDS_P2;PMS_P1;PMS_P2;Temp;Humidity;BMP_temperature;BMP_pressure;BME280_temperature;BME280_humidity;BME280_pressure;Samples;Min_cycle;Max_cycle;Signal;HPM_P1;HPM_P2
2023/10/23 00:00:21;;;;;;;4.57;2.90;;;;;;;13.46;57.67;98540.19;6944467;28;20238;-82
2023/10/23 00:03:42;;;;;;;4.57;2.40;;;;;;;13.20;57.84;98528.91;6944407;28;20635;-83
2023/10/23 00:07:04;;;;;;;2.90;2.50;;;;;;;12.82;58.95;98539.97;6967101;28;20316;-83
2023/10/23 00:10:25;;;;;;;3.77;2.53;;;;;;;12.58;59.80;98545.44;6972835;28;20228;-82
2023/10/23 00:13:47;;;;;;;3.30;2.40;;;;;;;12.59;59.74;98538.97;6970776;28;20293;-83
2023/10/23 00:17:10;;;;;;;3.77;2.50;;;;;;;12.44;60.37;98531.22;6972169;28;20692;-83
2023/10/23 00:20:31;;;;;;;4.07;2.60;;;;;;;12.41;59.77;98536.25;6971905;28;20961;-84
2023/10/23 00:23:53;;;;;;;5.67;2.47;;;;;;;13.01;58.57;98557.06;6953060;28;20309;-83
2023/10/23 00:27:14;;;;;;;3.90;3.07;;;;;;;12.96;58.58;98544.22;6939888;28;20364;-82
2023/10/23 00:30:36;;;;;;;3.43;2.80;;;;;;;12.90;58.67;98557.78;6962147;28;20206;-82
2023/10/23 00:33:59;;;;;;;4.40;2.37;;;;;;;12.62;58.40;98558.28;6970837;28;20301;-83
2023/10/23 00:37:20;;;;;;;5.37;2.80;;;;;;;12.45;59.20;98548.28;6971160;28;20264;-80
2023/10/23 00:40:42;;;;;;;5.13;2.57;;;;;;;12.50;59.15;98562.78;6957634;28;20237;-83
2023/10/23 00:44:03;;;;;;;4.53;2.73;;;;;;;12.52;58.76;98567.97;6971144;28;20297;-83
2023/10/23 00:47:25;;;;;;;7.83;2.77;;;;;;;12.65;58.49;98571.38;6971158;28;20292;-83
2023/10/23 00:50:49;;;;;;;5.73;2.60;;;;;;;12.66;58.28;98574.91;6971413;28;20329;-84
2023/10/23 00:54:11;;;;;;;3.97;2.40;;;;;;;12.30;58.50;98569.41;6965574;28;20298;-83
2023/10/23 00:57:33;;;;;;;2.83;2.53;;;;;;;12.23;59.83;98569.47;6944280;28;20727;-82
2023/10/23 01:00:55;;;;;;;5.20;2.77;;;;;;;12.63;58.71;98565.34;6943790;28;20848;-84
2023/10/23 01:04:17;;;;;;;3.00;2.17;;;;;;;12.27;59.58;98554.47;6943818;28;20361;-84
2023/10/23 01:07:40;;;;;;;4.17;2.33;;;;;;;12.51;58.50;98560.91;6964572;28;20218;-84
2023/10/23 01:11:01;;;;;;;2.67;2.43;;;;;;;11.60;61.08;98564.34;6971647;28;20226;-83
2023/10/23 01:14:23;;;;;;;2.67;2.40;;;;;;;12.26;59.80;98562.78;6970764;28;20712;-85
2023/10/23 01:17:44;;;;;;;3.30;2.40;;;;;;;12.31;59.58;98553.00;6971959;28;20311;-83
2023/10/23 01:21:06;;;;;;;3.67;2.87;;;;;;;12.31;59.48;98544.88;6971751;28;20301;-84
2023/10/23 01:24:31;;;;;;;3.00;2.80;;;;;;;11.96;59.42;98488.84;6971034;28;20305;-84
2023/10/23 01:27:54;;;;;;;4.27;3.00;;;;;;;12.58;58.65;98546.25;6971950;28;20309;-83
2023/10/23 01:31:16;;;;;;;5.33;2.60;;;;;;;12.62;57.81;98549.38;6971446;28;20285;-84
2023/10/23 01:34:38;;;;;;;3.10;2.30;;;;;;;12.24;58.42;98538.72;6972198;28;20597;-84
2023/10/23 01:37:59;;;;;;;4.93;2.73;;;;;;;12.57;57.63;98543.81;6977094;28;20284;-85
2023/10/23 01:41:20;;;;;;;4.10;2.50;;;;;;;12.49;58.08;98544.06;6977565;28;20237;-85
2023/10/23 01:44:43;;;;;;;2.43;2.23;;;;;;;12.50;58.47;98543.00;6976664;28;20257;-85
2023/10/23 01:48:06;;;;;;;4.97;2.87;;;;;;;12.55;58.09;98554.84;6976742;28;20294;-86
2023/10/23 01:51:27;;;;;;;4.40;2.37;;;;;;;12.22;57.76;98546.19;6950123;28;20214;-85
2023/10/23 01:54:51;;;;;;;2.90;2.53;;;;;;;12.22;58.90;98557.00;6949724;28;20285;-85
2023/10/23 01:58:12;;;;;;;4.70;2.80;;;;;;;12.47;57.86;98557.00;6948394;28;20318;-84
2023/10/23 02:01:38;;;;;;;3.60;2.30;;;;;;;12.37;58.14;98548.56;6933659;28;20297;-85
2023/10/23 02:05:00;;;;;;;2.60;2.40;;;;;;;12.49;57.72;98542.22;6947608;28;20622;-85
2023/10/23 02:08:23;;;;;;;2.30;2.10;;;;;;;12.33;58.62;98539.25;6932426;28;20305;-85
2023/10/23 02:11:46;;;;;;;4.97;2.53;;;;;;;11.87;58.98;98509.13;6942422;28;20329;-85
2023/10/23 02:15:09;;;;;;;4.20;2.40;;;;;;;12.06;58.93;98538.66;6976759;28;20202;-85
2023/10/23 02:18:32;;;;;;;4.70;2.60;;;;;;;11.92;59.77;98530.91;6978421;28;20233;-85
2023/10/23 02:21:53;;;;;;;4.10;2.57;;;;;;;12.04;59.01;98538.03;6971322;28;20294;-85
2023/10/23 02:25:15;;;;;;;3.83;2.50;;;;;;;11.94;58.79;98536.91;6966728;28;20713;-84
2023/10/23 02:28:36;;;;;;;3.90;2.30;;;;;;;11.95;59.31;98533.13;6974950;28;20313;-85
2023/10/23 02:31:58;;;;;;;7.60;2.93;;;;;;;11.78;59.96;98540.13;6954270;28;20253;-85
2023/10/23 02:35:21;;;;;;;2.97;2.67;;;;;;;11.95;59.78;98546.66;6965350;28;20289;-84
2023/10/23 02:38:42;;;;;;;3.43;2.40;;;;;;;11.91;59.49;98532.75;6977290;28;20363;-86
2023/10/23 02:42:04;;;;;;;4.27;2.93;;;;;;;11.70;59.99;98541.22;6977118;28;20702;-85
2023/10/23 02:45:25;;;;;;;4.30;2.33;;;;;;;11.84;59.59;98548.19;6976981;28;20317;-85
2023/10/23 02:48:47;;;;;;;10.43;6.97;;;;;;;11.82;59.08;98539.50;6976500;28;21065;-85
2023/10/23 02:52:10;;;;;;;4.23;2.80;;;;;;;11.84;58.53;98550.06;6976361;28;20347;-85
2023/10/23 02:55:31;;;;;;;5.33;2.87;;;;;;;12.01;58.34;98552.00;6957914;28;20230;-85
2023/10/23 02:58:53;;;;;;;4.07;2.77;;;;;;;11.73;60.00;98554.28;6950604;28;20246;-85
2023/10/23 03:02:14;;;;;;;7.47;3.73;;;;;;;11.94;58.79;98548.53;6950168;28;20350;-85
2023/10/23 03:05:36;;;;;;;5.40;3.30;;;;;;;11.87;58.31;98555.03;6949100;28;20254;-85
2023/10/23 03:08:59;;;;;;;6.13;3.23;;;;;;;11.58;58.29;98558.31;6954605;28;20229;-85
2023/10/23 03:12:21;;;;;;;3.97;2.57;;;;;;;11.71;58.60;98551.00;6977377;28;20299;-85
2023/10/23 03:15:43;;;;;;;5.17;2.90;;;;;;;11.74;59.10;98552.44;6978108;28;20711;-85
2023/10/23 03:19:05;;;;;;;4.47;2.63;;;;;;;11.62;59.12;98535.28;6978618;28;20307;-85
2023/10/23 03:22:26;;;;;;;6.77;2.87;;;;;;;11.55;58.48;98556.03;6978247;28;20241;-85
2023/10/23 03:25:50;;;;;;;3.40;2.93;;;;;;;11.24;60.03;98558.72;6961771;28;20779;-85
2023/10/23 03:29:11;;;;;;;5.80;3.10;;;;;;;11.41;59.42;98541.81;6950946;28;20379;-84
2023/10/23 03:32:33;;;;;;;7.60;2.90;;;;;;;11.26;59.92;98557.44;6949078;28;20696;-85
2023/10/23 03:35:54;;;;;;;4.27;2.80;;;;;;;11.31;59.49;98560.34;6948845;28;20995;-88
2023/10/23 03:39:16;;;;;;;8.20;4.20;;;;;;;11.52;59.40;98559.19;6947209;28;20241;-88
2023/10/23 03:42:38;;;;;;;4.50;3.90;;;;;;;11.40;59.25;98556.31;6968628;28;20218;-85
2023/10/23 03:46:02;;;;;;;4.37;3.50;;;;;;;11.41;59.41;98549.91;6974450;28;20309;-86
2023/10/23 03:49:24;;;;;;;7.33;3.70;;;;;;;11.21;59.24;98556.47;6973172;28;20206;-86
2023/10/23 03:52:45;;;;;;;6.13;3.00;;;;;;;11.18;59.55;98559.56;6970329;28;20293;-87
2023/10/23 03:56:07;;;;;;;3.60;3.10;;;;;;;11.15;59.84;98551.91;6969338;28;20222;-87
2023/10/23 03:59:30;;;;;;;5.57;3.40;;;;;;;11.22;59.89;98552.72;6970339;28;20297;-89
2023/10/23 04:02:52;;;;;;;4.70;3.33;;;;;;;11.02;60.01;98541.16;6970871;28;20652;-88
2023/10/23 04:06:13;;;;;;;6.70;3.87;;;;;;;11.40;59.37;98536.63;6971800;28;20230;-86
2023/10/23 04:09:35;;;;;;;3.87;2.90;;;;;;;11.31;58.47;98551.41;6962612;28;20338;-88
2023/10/23 04:12:57;;;;;;;4.27;3.00;;;;;;;10.67;59.71;98547.94;6942766;28;20251;-89
2023/10/23 04:16:20;;;;;;;4.97;2.80;;;;;;;10.93;59.87;98539.75;6950452;28;20244;-89
2023/10/23 04:19:42;;;;;;;6.43;3.50;;;;;;;10.90;60.02;98542.88;6971521;28;20357;-87
2023/10/23 04:23:03;;;;;;;8.80;3.60;;;;;;;10.96;60.17;98542.00;6968696;28;20322;-88
2023/10/23 04:26:25;;;;;;;5.37;3.33;;;;;;;10.72;60.29;98527.41;6969368;28;20235;-88
2023/10/23 04:29:46;;;;;;;5.47;3.20;;;;;;;10.64;60.49;98533.00;6969569;28;20205;-87
2023/10/23 04:33:09;;;;;;;4.80;3.07;;;;;;;10.62;60.18;98534.28;6968657;28;20727;-88
2023/10/23 04:36:30;;;;;;;3.20;2.90;;;;;;;10.67;59.40;98515.56;6969048;28;20355;-88
2023/10/23 04:39:52;;;;;;;5.87;3.30;;;;;;;10.90;59.19;98527.53;6969909;28;20748;-89
2023/10/23 04:43:13;;;;;;;6.07;4.37;;;;;;;10.73;59.48;98526.34;6969687;28;20297;-87
2023/10/23 04:46:35;;;;;;;4.97;3.27;;;;;;;10.91;59.65;98522.94;6969906;28;20764;-85
2023/10/23 04:49:58;;;;;;;4.10;3.13;;;;;;;10.81;58.75;98525.28;6970674;28;20285;-87
2023/10/23 04:53:20;;;;;;;3.73;3.10;;;;;;;10.41;59.65;98513.81;6969377;28;20296;-88
2023/10/23 04:56:42;;;;;;;4.57;3.40;;;;;;;10.76;59.70;98517.00;6959055;28;20226;-87
2023/10/23 05:00:05;;;;;;;5.07;3.33;;;;;;;10.62;59.47;98518.91;6970098;28;20203;-88
2023/10/23 05:03:27;;;;;;;8.00;3.30;;;;;;;10.53;60.02;98513.97;6973957;28;20580;-88
2023/10/23 05:06:49;;;;;;;7.40;4.03;;;;;;;10.36;60.35;98521.69;6972568;28;20269;-87
2023/10/23 05:10:11;;;;;;;4.33;3.93;;;;;;;9.93;60.74;98430.78;6973744;28;20306;-86
2023/10/23 05:13:33;;;;;;;4.93;3.43;;;;;;;10.71;60.05;98487.16;6979169;28;20233;-86
2023/10/23 05:16:54;;;;;;;7.87;3.47;;;;;;;10.66;58.62;98498.59;6960238;28;20270;-86
2023/10/23 05:20:16;;;;;;;4.63;3.90;;;;;;;10.58;59.78;98495.31;6979486;28;20293;-85
2023/10/23 05:23:39;;;;;;;5.50;3.47;;;;;;;10.27;60.07;98473.63;6957755;28;20564;-86
2023/10/23 05:27:01;;;;;;;4.00;2.90;;;;;;;10.67;58.63;98485.91;6965746;28;20257;-86
2023/10/23 05:30:22;;;;;;;5.00;3.40;;;;;;;10.52;58.68;98502.34;6982193;28;20258;-86
2023/10/23 05:33:44;;;;;;;6.43;4.00;;;;;;;10.41;59.44;98505.72;6982250;28;20259;-85
2023/10/23 05:37:05;;;;;;;5.93;4.30;;;;;;;10.29;60.04;98503.88;6984230;28;20222;-87
2023/10/23 05:40:28;;;;;;;5.10;4.17;;;;;;;10.05;60.52;98510.75;6986710;28;20257;-86
2023/10/23 05:43:50;;;;;;;4.97;3.60;;;;;;;10.02;60.56;98496.81;6981617;28;20709;-87
2023/10/23 05:47:11;;;;;;;5.33;3.63;;;;;;;10.22;60.40;98514.66;6980455;28;20300;-86
2023/10/23 05:50:33;;;;;;;8.43;4.13;;;;;;;10.02;60.34;98492.28;6971321;28;20292;-83
2023/10/23 05:53:54;;;;;;;7.23;4.23;;;;;;;10.08;59.88;98478.00;6970881;28;20202;-83
2023/10/23 05:57:17;;;;;;;7.20;4.73;;;;;;;10.21;59.52;98531.88;6988988;28;20250;-83
2023/10/23 06:00:38;;;;;;;9.07;4.50;;;;;;;10.17;59.83;98525.22;6976615;28;20253;-83
2023/10/23 06:04:00;;;;;;;8.37;4.63;;;;;;;10.15;60.41;98513.03;6969685;28;20311;-83
2023/10/23 06:07:21;;;;;;;6.57;4.33;;;;;;;10.22;59.29;98530.00;6981551;28;20271;-83
2023/10/23 06:10:44;;;;;;;5.23;4.13;;;;;;;10.09;58.84;98556.97;6981999;28;20247;-84
2023/10/23 06:14:06;;;;;;;7.70;4.63;;;;;;;9.80;60.00;98535.81;6977692;28;20244;-85
2023/10/23 06:17:28;;;;;;;5.07;3.80;;;;;;;9.94;60.33;98550.91;6968526;28;20752;-86
2023/10/23 06:20:57;;;;;;;7.97;3.40;;;;;;;9.91;59.73;98541.38;6970967;28;20346;-87
2023/10/23 06:24:19;;;;;;;3.87;3.53;;;;;;;9.92;59.73;98539.53;6976678;28;20258;-86
2023/10/23 06:27:40;;;;;;;9.53;3.97;;;;;;;10.05;59.82;98508.03;6980441;28;20315;-85
2023/10/23 06:31:06;;;;;;;6.03;3.40;;;;;;;10.26;59.66;98537.44;6973119;28;20276;-86
2023/10/23 06:34:28;;;;;;;7.87;3.43;;;;;;;10.65;59.05;98532.00;6969376;28;20214;-86
2023/10/23 06:37:50;;;;;;;4.80;3.77;;;;;;;10.79;58.29;98528.19;6979317;28;20773;-85
2023/10/23 06:41:11;;;;;;;6.20;4.20;;;;;;;10.76;58.01;98531.34;6978868;28;20210;-86
2023/10/23 06:44:33;;;;;;;9.53;3.50;;;;;;;10.50;58.73;98500.94;6972781;28;20672;-86
2023/10/23 06:47:55;;;;;;;9.03;6.13;;;;;;;10.67;58.88;98529.06;6975925;28;20300;-86
2023/10/23 06:51:17;;;;;;;11.63;4.50;;;;;;;11.14;57.94;98534.06;6976887;28;20206;-85
2023/10/23 06:54:39;;;;;;;5.83;4.57;;;;;;;10.71;59.00;98482.59;6970177;28;20210;-86
2023/10/23 06:58:00;;;;;;;4.63;3.37;;;;;;;11.86;56.50;98527.19;6982523;28;20275;-87
2023/10/23 07:01:22;;;;;;;6.60;4.33;;;;;;;12.26;55.65;98523.09;6979275;28;20202;-86
2023/10/23 07:04:45;;;;;;;5.97;4.17;;;;;;;11.91;56.75;98527.34;6974345;28;20474;-87
2023/10/23 07:08:06;;;;;;;8.77;5.23;;;;;;;11.44;57.63;98519.75;6971562;28;20726;-85
2023/10/23 07:11:28;;;;;;;12.30;4.57;;;;;;;11.51;57.88;98498.13;6971084;28;20209;-87
2023/10/23 07:14:49;;;;;;;5.27;4.10;;;;;;;11.52;58.86;98486.28;6971637;28;20214;-87
2023/10/23 07:18:11;;;;;;;6.17;3.60;;;;;;;12.14;57.62;98494.31;6973391;28;20315;-88
2023/10/23 07:21:34;;;;;;;6.97;3.63;;;;;;;12.10;57.56;98502.03;6974983;28;20684;-88
2023/10/23 07:24:56;;;;;;;12.20;4.23;;;;;;;11.99;57.09;98488.44;6963806;28;20293;-87
2023/10/23 07:28:17;;;;;;;7.97;4.10;;;;;;;11.68;58.32;98480.41;6969433;28;20236;-88
2023/10/23 07:31:39;;;;;;;5.70;4.10;;;;;;;12.02;59.06;98483.41;6977293;28;20767;-86
2023/10/23 07:35:00;;;;;;;4.93;4.07;;;;;;;12.19;59.09;98487.19;6978689;28;20299;-89
2023/10/23 07:38:23;;;;;;;4.50;3.93;;;;;;;12.10;58.53;98477.72;6974205;28;20275;-89
2023/10/23 07:41:45;;;;;;;7.67;3.87;;;;;;;12.00;59.35;98463.06;6968009;28;20725;-85
2023/10/23 07:45:08;;;;;;;5.60;4.27;;;;;;;12.43;59.29;98455.75;6957731;28;20210;-85
2023/10/23 07:48:30;;;;;;;8.07;4.50;;;;;;;12.55;59.04;98467.44;6969306;28;20278;-83
2023/10/23 07:51:53;;;;;;;4.37;3.23;;;;;;;12.89;57.56;98470.38;6972615;28;20210;-85
2023/10/23 07:55:16;;;;;;;7.77;3.57;;;;;;;12.94;57.74;98426.41;6967326;28;20213;-84
2023/10/23 07:58:37;;;;;;;6.20;3.30;;;;;;;13.10;56.97;98456.38;6973646;28;20226;-84
2023/10/23 08:01:59;;;;;;;4.97;3.60;;;;;;;12.88;58.38;98460.63;6973832;28;20289;-84
2023/10/23 08:05:20;;;;;;;5.07;3.90;;;;;;;13.14;58.68;98440.50;6970885;28;20681;-83
2023/10/23 08:08:44;;;;;;;6.57;3.60;;;;;;;13.48;58.02;98453.31;6972347;28;20226;-84
2023/10/23 08:12:08;;;;;;;8.97;4.43;;;;;;;13.50;57.90;98449.31;6967468;28;20218;-84
2023/10/23 08:15:30;;;;;;;6.40;4.27;;;;;;;13.59;57.80;98455.22;6964201;28;20217;-83
2023/10/23 08:18:51;;;;;;;34.03;18.33;;;;;;;13.47;58.52;98457.09;6964149;28;20294;-84
2023/10/23 08:22:13;;;;;;;10.17;5.90;;;;;;;13.31;58.13;98457.75;6973271;28;20264;-84
2023/10/23 08:25:35;;;;;;;8.73;7.40;;;;;;;13.34;59.68;98449.97;6969776;28;20600;-83
2023/10/23 08:28:58;;;;;;;12.20;5.90;;;;;;;14.00;57.92;98444.31;6968704;28;20717;-85
2023/10/23 08:32:19;;;;;;;9.87;7.70;;;;;;;13.89;57.98;98428.88;6967829;28;20616;-84
2023/10/23 08:35:41;;;;;;;8.70;5.27;;;;;;;14.15;57.44;98439.25;6966552;28;20293;-84
2023/10/23 08:39:03;;;;;;;7.47;5.40;;;;;;;14.51;56.68;98447.16;6974077;28;20672;-84
2023/10/23 08:42:27;;;;;;;6.03;4.77;;;;;;;14.24;56.60;98421.59;6972827;28;20548;-84
2023/10/23 08:45:50;;;;;;;6.83;4.73;;;;;;;13.95;57.69;98434.19;6973287;28;20200;-84
2023/10/23 08:49:11;;;;;;;6.67;4.13;;;;;;;14.17;56.99;98440.66;6968000;28;20708;-83
2023/10/23 08:52:35;;;;;;;8.40;4.80;;;;;;;14.39;56.53;98408.38;6968970;28;20607;-84
2023/10/23 08:55:57;;;;;;;6.37;5.20;;;;;;;14.58;56.12;98450.56;6971300;28;20229;-84
2023/10/23 08:59:18;;;;;;;7.93;5.00;;;;;;;14.66;56.72;98451.00;6956660;28;20352;-84
2023/10/23 09:02:41;;;;;;;6.07;4.57;;;;;;;14.79;56.27;98448.03;6968006;28;20227;-84
2023/10/23 09:06:03;;;;;;;6.93;4.53;;;;;;;14.75;56.27;98435.19;6971652;28;20218;-83
2023/10/23 09:09:25;;;;;;;6.30;4.50;;;;;;;15.04;55.93;98431.44;6955689;28;20686;-84
2023/10/23 09:12:46;;;;;;;6.10;4.43;;;;;;;15.00;55.34;98444.66;6966387;28;20191;-84
2023/10/23 09:16:09;;;;;;;6.67;5.00;;;;;;;14.87;55.94;98438.69;6966637;28;20230;-84
2023/10/23 09:19:34;;;;;;;8.03;4.63;;;;;;;14.88;56.24;98414.03;6970860;28;20628;-82
2023/10/23 09:22:55;;;;;;;7.40;4.13;;;;;;;15.05;56.28;98412.16;6960908;28;20310;-84
2023/10/23 09:26:17;;;;;;;6.17;4.57;;;;;;;15.10;55.53;98400.59;6969383;28;20249;-83
2023/10/23 09:29:39;;;;;;;7.53;4.53;;;;;;;15.36;55.46;98403.53;6981655;28;20233;-84
2023/10/23 09:33:00;;;;;;;5.83;4.03;;;;;;;15.49;54.38;98405.09;6976957;28;20203;-83
2023/10/23 09:36:26;;;;;;;6.30;4.07;;;;;;;15.73;54.30;98402.00;6985569;28;20222;-85
2023/10/23 09:39:48;;;;;;;5.23;4.17;;;;;;;15.72;54.16;98394.09;6987020;28;20206;-84
2023/10/23 09:43:09;;;;;;;8.00;4.10;;;;;;;16.02;54.22;98408.16;6973149;28;20784;-84
2023/10/23 09:46:32;;;;;;;6.93;4.87;;;;;;;15.83;54.69;98390.44;6958911;28;20315;-83
2023/10/23 09:49:53;;;;;;;7.43;4.43;;;;;;;16.19;54.04;98411.66;6965692;28;20686;-82
2023/10/23 09:53:17;;;;;;;5.57;3.97;;;;;;;16.41;53.23;98421.56;6963894;28;20710;-82
2023/10/23 09:56:40;;;;;;;6.97;3.80;;;;;;;16.54;53.66;98420.34;6962666;28;20764;-83
2023/10/23 10:00:05;;;;;;;8.70;4.00;;;;;;;16.62;53.42;98425.34;6965179;28;20297;-82
2023/10/23 10:03:27;;;;;;;5.00;3.97;;;;;;;16.03;54.23;98410.63;6956467;28;20223;-84
2023/10/23 10:06:54;;;;;;;10.93;4.07;;;;;;;16.17;53.84;98403.75;6972705;28;20245;-84
2023/10/23 10:10:18;;;;;;;4.87;3.63;;;;;;;16.18;54.59;98407.31;6973401;28;20277;-84
2023/10/23 10:13:40;;;;;;;4.97;3.70;;;;;;;16.33;54.38;98404.81;6945886;28;20355;-84
2023/10/23 10:17:02;;;;;;;5.23;3.60;;;;;;;16.34;54.15;98393.66;6970416;28;20313;-83
2023/10/23 10:20:25;;;;;;;7.93;3.97;;;;;;;16.23;54.21;98399.22;6969952;28;20238;-83
2023/10/23 10:23:46;;;;;;;12.93;6.00;;;;;;;15.67;55.57;98394.00;6955090;28;20261;-80
2023/10/23 10:27:10;;;;;;;10.20;6.63;;;;;;;16.09;54.79;98389.75;6963648;28;20326;-84
2023/10/23 10:30:40;;;;;;;4.47;3.87;;;;;;;16.03;55.06;98398.91;6956579;28;20211;-82
2023/10/23 10:34:03;;;;;;;7.73;3.93;;;;;;;16.37;54.08;98381.44;6965532;28;20363;-82
2023/10/23 10:37:27;;;;;;;5.07;3.60;;;;;;;15.96;54.80;98377.34;6964472;28;20758;-83
2023/10/23 10:40:58;;;;;;;5.23;3.90;;;;;;;15.63;55.29;98354.81;6971457;28;20200;-83
2023/10/23 10:44:23;;;;;;;5.83;3.50;;;;;;;16.19;54.76;98365.41;6968996;28;20272;-82
2023/10/23 10:47:47;;;;;;;6.67;3.77;;;;;;;16.25;53.98;98357.09;6971628;28;20327;-82
2023/10/23 10:51:08;;;;;;;6.67;3.90;;;;;;;16.68;53.24;98339.97;6967079;28;20256;-83
2023/10/23 10:54:33;;;;;;;7.90;4.43;;;;;;;16.71;52.74;98304.91;6971652;28;20266;-82
2023/10/23 10:57:55;;;;;;;4.87;3.70;;;;;;;17.12;52.46;98326.00;6958446;28;20303;-82
2023/10/23 11:01:21;;;;;;;4.73;3.60;;;;;;;16.61;53.46;98314.81;6969200;28;20693;-82
2023/10/23 11:04:43;;;;;;;9.63;4.50;;;;;;;16.70;53.35;98316.03;6950196;28;20282;-82
2023/10/23 11:08:05;;;;;;;7.10;4.67;;;;;;;16.93;53.32;98304.84;6942929;28;20736;-83
2023/10/23 11:11:27;;;;;;;7.87;4.80;;;;;;;16.89;53.01;98304.53;6949866;28;20667;-83
2023/10/23 11:14:48;;;;;;;11.57;4.87;;;;;;;16.62;52.19;98235.66;6966397;28;20254;-82
2023/10/23 11:18:11;;;;;;;7.87;4.70;;;;;;;17.30;52.35;98298.38;6971239;28;20308;-83
2023/10/23 11:21:33;;;;;;;6.80;4.33;;;;;;;17.26;52.16;98293.69;6971521;28;20208;-83
2023/10/23 11:24:54;;;;;;;10.93;6.37;;;;;;;17.37;52.47;98292.69;6962046;28;20357;-83
2023/10/23 11:28:17;;;;;;;8.57;3.83;;;;;;;17.11;53.26;98278.03;6971571;28;20263;-83
2023/10/23 11:31:39;;;;;;;9.07;4.80;;;;;;;17.65;52.15;98265.13;6963486;28;20670;-83
2023/10/23 11:35:04;;;;;;;8.70;5.67;;;;;;;17.56;52.89;98256.63;6971138;28;20204;-83
2023/10/23 11:38:27;;;;;;;22.60;12.70;;;;;;;17.85;51.49;98246.97;6964123;28;20231;-82
2023/10/23 11:41:54;;;;;;;15.70;11.57;;;;;;;18.02;50.94;98238.59;6971308;28;20201;-83
2023/10/23 11:45:17;;;;;;;14.90;8.87;;;;;;;17.99;51.27;98230.97;6971008;28;20674;-83
2023/10/23 11:48:38;;;;;;;14.90;8.77;;;;;;;18.11;51.56;98228.81;6971162;28;20327;-83
2023/10/23 11:52:02;;;;;;;7.07;5.57;;;;;;;18.32;51.49;98225.09;6970838;28;20239;-83
2023/10/23 11:55:23;;;;;;;7.97;4.80;;;;;;;18.62;50.58;98226.00;6962400;28;20240;-83
2023/10/23 11:58:45;;;;;;;8.00;4.87;;;;;;;17.87;51.65;98148.53;6961438;28;20221;-83
2023/10/23 12:02:07;;;;;;;7.60;4.53;;;;;;;18.26;51.11;98185.19;6971707;28;20664;-83
2023/10/23 12:05:28;;;;;;;8.10;4.50;;;;;;;18.30;51.32;98194.50;6969110;28;20580;-83
2023/10/23 12:08:51;;;;;;;11.30;5.20;;;;;;;18.72;50.78;98184.22;6971152;28;20317;-83
2023/10/23 12:12:13;;;;;;;12.73;5.43;;;;;;;18.67;50.17;98173.31;6970082;28;20355;-83
2023/10/23 12:15:34;;;;;;;9.20;4.40;;;;;;;18.54;50.85;98185.59;6963777;28;20264;-83
2023/10/23 12:18:56;;;;;;;13.07;5.10;;;;;;;18.58;50.91;98172.22;6960936;28;20206;-83
2023/10/23 12:22:17;;;;;;;10.33;4.73;;;;;;;18.39;51.51;98190.22;6964478;28;20676;-82
2023/10/23 12:25:40;;;;;;;9.10;4.73;;;;;;;18.42;51.44;98185.03;6962384;28;20252;-83
2023/10/23 12:29:05;;;;;;;7.63;4.70;;;;;;;18.27;51.94;98175.97;6961259;28;20811;-83
2023/10/23 12:32:27;;;;;;;6.80;5.13;;;;;;;18.61;52.06;98185.31;6964154;28;20206;-83
2023/10/23 12:35:48;;;;;;;13.37;8.40;;;;;;;18.74;52.38;98206.66;6970580;28;20204;-83
2023/10/23 12:39:10;;;;;;;6.53;5.33;;;;;;;18.26;54.40;98213.31;6965724;28;20703;-83
2023/10/23 12:42:34;;;;;;;8.43;4.47;;;;;;;17.97;55.00;98216.75;6970014;28;25319;-83
2023/10/23 12:45:56;;;;;;;7.93;5.40;;;;;;;18.46;53.98;98209.88;6972307;28;20319;-83
2023/10/23 12:49:17;;;;;;;6.03;4.40;;;;;;;18.05;54.45;98199.88;6972358;28;20691;-82
2023/10/23 12:52:39;;;;;;;13.40;4.70;;;;;;;17.81;54.54;98188.59;6952129;28;20244;-83
2023/10/23 12:56:00;;;;;;;10.40;4.60;;;;;;;17.97;54.49;98170.38;6967897;28;20303;-83
2023/10/23 12:59:23;;;;;;;7.00;4.60;;;;;;;18.38;53.83;98158.50;6969765;28;20202;-83
2023/10/23 13:02:45;;;;;;;6.40;4.70;;;;;;;18.54;53.27;98144.63;6964217;28;20201;-82
2023/10/23 13:06:07;;;;;;;8.67;4.77;;;;;;;18.72;52.98;98140.53;6961492;28;20716;-83
2023/10/23 13:09:29;;;;;;;6.77;4.33;;;;;;;18.77;52.85;98118.69;6946004;28;20227;-83
2023/10/23 13:12:51;;;;;;;10.60;4.63;;;;;;;18.82;52.86;98107.78;6954002;28;20212;-84
2023/10/23 13:16:14;;;;;;;6.50;4.23;;;;;;;18.89;52.65;98092.75;6973322;28;20321;-83
2023/10/23 13:19:36;;;;;;;15.63;9.03;;;;;;;18.67;53.66;98088.66;6968940;28;20276;-82
2023/10/23 13:22:57;;;;;;;11.00;5.47;;;;;;;18.96;52.56;98087.81;6961762;28;20213;-83
2023/10/23 13:26:19;;;;;;;8.10;4.90;;;;;;;19.02;52.23;98073.03;6966148;28;20216;-83
2023/10/23 13:29:40;;;;;;;9.87;5.20;;;;;;;18.86;53.16;98085.09;6958903;28;20279;-81
2023/10/23 13:33:04;;;;;;;7.70;5.00;;;;;;;18.62;53.74;98110.50;6970404;28;20247;-82
2023/10/23 13:36:26;;;;;;;7.27;5.47;;;;;;;16.98;57.36;98066.03;6971530;28;20253;-82
2023/10/23 13:39:48;;;;;;;4.87;4.23;;;;;;;17.76;56.07;98032.34;6973130;28;20300;-81
2023/10/23 13:43:09;;;;;;;5.23;3.23;;;;;;;18.33;52.85;98043.91;6973946;28;20216;-82
2023/10/23 13:46:31;;;;;;;6.33;3.70;;;;;;;18.98;52.55;98035.63;6978598;28;20312;-82
2023/10/23 13:49:55;;;;;;;4.23;3.07;;;;;;;19.43;50.83;98036.31;6970588;28;20378;-82
2023/10/23 13:53:17;;;;;;;4.97;3.13;;;;;;;19.45;51.62;98027.84;6979732;28;20205;-83
2023/10/23 13:56:38;;;;;;;7.90;3.80;;;;;;;19.28;51.59;98011.78;6976830;28;20223;-83
2023/10/23 14:00:00;;;;;;;6.90;4.67;;;;;;;19.61;51.73;98024.75;6970027;28;20214;-83
2023/10/23 14:03:21;;;;;;;9.33;5.20;;;;;;;19.74;52.02;98017.84;6969389;28;20233;-83
2023/10/23 14:06:44;;;;;;;4.50;3.33;;;;;;;19.43;50.63;98027.28;6972381;28;20250;-83
2023/10/23 14:10:07;;;;;;;5.37;3.03;;;;;;;19.59;50.86;98017.94;6973681;28;20257;-81
2023/10/23 14:13:28;;;;;;;5.10;4.60;;;;;;;19.78;50.64;98002.50;6959361;28;20252;-82
2023/10/23 14:16:50;;;;;;;8.50;6.20;;;;;;;19.80;50.37;97997.56;6968806;28;20331;-81
2023/10/23 14:20:12;;;;;;;12.70;7.60;;;;;;;19.57;51.22;97999.06;6965636;28;20606;-81
2023/10/23 14:23:35;;;;;;;6.83;5.37;;;;;;;19.63;50.17;97989.72;6976907;28;20234;-81
2023/10/23 14:26:57;;;;;;;8.97;7.43;;;;;;;19.85;49.75;97972.91;6981143;28;20278;-81
2023/10/23 14:30:18;;;;;;;3.93;3.23;;;;;;;20.00;49.21;97962.69;6978842;28;20226;-82
2023/10/23 14:33:40;;;;;;;11.23;6.80;;;;;;;19.93;49.55;97948.47;6973311;28;20283;-81
2023/10/23 14:37:01;;;;;;;3.57;3.13;;;;;;;19.95;50.07;97957.25;6975420;28;20221;-81
2023/10/23 14:40:24;;;;;;;4.30;2.90;;;;;;;19.72;49.71;97955.22;6983139;28;20233;-81
2023/10/23 14:43:45;;;;;;;2.90;2.60;;;;;;;19.96;49.43;97958.03;6984059;28;20214;-81
2023/10/23 14:47:07;;;;;;;3.90;2.50;;;;;;;19.62;50.47;97951.72;6985324;28;20230;-81
2023/10/23 14:50:29;;;;;;;3.63;3.20;;;;;;;19.84;49.62;97944.75;6983912;28;20238;-81
2023/10/23 14:53:50;;;;;;;2.93;2.60;;;;;;;19.77;49.34;97938.78;6959233;28;20296;-81
2023/10/23 14:57:13;;;;;;;4.93;3.20;;;;;;;19.90;49.48;97932.66;6977262;28;20574;-81
2023/10/23 15:00:35;;;;;;;2.87;2.60;;;;;;;19.88;49.50;97914.88;6986803;28;20202;-81
2023/10/23 15:03:58;;;;;;;3.07;2.13;;;;;;;19.66;49.81;97892.63;6987699;28;20577;-81
2023/10/23 15:07:20;;;;;;;4.30;2.30;;;;;;;19.64;49.44;97900.31;6987229;28;20222;-81
2023/10/23 15:10:41;;;;;;;4.00;2.50;;;;;;;19.41;49.81;97877.19;6994345;28;20220;-80
2023/10/23 15:14:06;;;;;;;2.50;2.30;;;;;;;19.51;49.78;97881.81;6996463;28;20197;-81
2023/10/23 15:17:28;;;;;;;3.17;2.83;;;;;;;19.63;49.27;97853.00;6998712;28;20351;-81
2023/10/23 15:20:49;;;;;;;4.03;3.53;;;;;;;19.81;49.05;97881.56;6994188;28;20210;-81
2023/10/23 15:24:12;;;;;;;4.83;3.00;;;;;;;19.27;50.20;97869.94;6998017;28;20214;-82
2023/10/23 15:27:33;;;;;;;4.67;2.47;;;;;;;19.05;50.90;97869.50;6989249;28;20245;-82
2023/10/23 15:30:59;;;;;;;3.00;2.33;;;;;;;18.66;51.85;97872.13;6974220;28;20218;-82
2023/10/23 15:34:23;;;;;;;6.37;4.67;;;;;;;19.09;50.95;97863.19;6981133;28;20209;-81
2023/10/23 15:37:45;;;;;;;5.33;2.90;;;;;;;19.48;50.14;97874.16;6983279;28;20497;-81
2023/10/23 15:41:07;;;;;;;3.10;2.60;;;;;;;19.05;51.50;97877.69;6996307;28;20232;-81
2023/10/23 15:44:32;;;;;;;2.43;2.23;;;;;;;19.17;51.19;97875.44;6990561;28;20205;-79
2023/10/23 15:47:59;;;;;;;3.03;2.53;;;;;;;19.03;51.54;97855.28;6988928;28;20225;-81